createdAt,value
2022-10-13T00:00:53.096Z,71.97
2022-10-13T00:03:21.305Z,72.33
2022-10-13T00:05:51.889Z,72.24
2022-10-13T00:08:22.417Z,72.20
2022-10-13T00:10:52.678Z,72.64
2022-10-13T00:13:22.006Z,72.63
2022-10-13T00:15:50.377Z,72.67
2022-10-13T00:18:18.579Z,73.01
2022-10-13T00:20:49.182Z,73.21
2022-10-13T00:23:18.536Z,72.98
2022-10-13T00:25:48.154Z,72.99
2022-10-13T00:28:19.703Z,73.11
2022-10-13T00:30:48.866Z,72.83
2022-10-13T00:33:16.999Z,73.16
2022-10-13T00:35:47.380Z,73.08
2022-10-13T00:38:17.081Z,73.04
2022-10-13T00:40:46.740Z,73.31
2022-10-13T00:43:27.716Z,73.25
2022-10-13T00:45:56.153Z,73.42
2022-10-13T00:48:28.756Z,73.21
2022-10-13T00:50:58.332Z,73.50
2022-10-13T00:53:31.780Z,73.52
2022-10-13T00:56:00.495Z,73.08
2022-10-13T00:58:32.926Z,73.84
2022-10-13T01:01:02.098Z,74.14
2022-10-13T01:03:30.323Z,74.05
2022-10-13T01:06:01.917Z,73.94
2022-10-13T01:08:30.747Z,74.10
2022-10-13T01:11:10.064Z,73.74
2022-10-13T01:13:45.812Z,73.71
2022-10-13T01:16:23.673Z,73.65
2022-10-13T01:18:58.266Z,74.20
2022-10-13T01:21:32.432Z,74.71
2022-10-13T01:24:31.420Z,74.42
2022-10-13T01:27:19.391Z,74.39
2022-10-13T01:30:06.452Z,74.13
2022-10-13T01:32:45.078Z,74.24
2022-10-13T01:35:17.777Z,74.34
2022-10-13T01:37:54.135Z,74.32
2022-10-13T01:40:27.389Z,74.17
2022-10-13T01:43:00.465Z,74.03
2022-10-13T01:45:37.582Z,74.36
2022-10-13T01:48:09.057Z,74.38
2022-10-13T01:50:38.404Z,74.91
2022-10-13T01:53:08.030Z,74.66
2022-10-13T01:55:36.172Z,74.60
2022-10-13T01:58:04.284Z,74.54
2022-10-13T02:00:42.476Z,74.40
2022-10-13T02:03:21.575Z,74.72
2022-10-13T02:05:59.215Z,74.46
2022-10-13T02:08:32.908Z,74.53
2022-10-13T02:11:11.052Z,74.93
2022-10-13T02:13:45.567Z,74.80
2022-10-13T02:16:17.086Z,74.76
2022-10-13T02:18:45.906Z,75.07
2022-10-13T02:21:14.070Z,75.15
2022-10-13T02:23:44.207Z,74.89
2022-10-13T02:26:12.854Z,75.23
2022-10-13T02:28:41.907Z,75.46
2022-10-13T02:31:10.657Z,75.47
2022-10-13T02:33:40.108Z,75.30
2022-10-13T02:36:08.284Z,75.05
2022-10-13T02:38:36.490Z,75.41
2022-10-13T02:41:04.623Z,75.39
2022-10-13T02:43:33.932Z,75.41
2022-10-13T02:46:02.307Z,75.23
2022-10-13T02:48:33.236Z,75.03
2022-10-13T02:51:02.739Z,75.72
2022-10-13T02:53:30.836Z,76.15
2022-10-13T02:55:59.687Z,75.45
2022-10-13T02:58:27.920Z,75.67
2022-10-13T03:00:56.008Z,76.59
2022-10-13T03:03:24.343Z,76.00
2022-10-13T03:05:52.590Z,75.71
2022-10-13T03:08:22.116Z,75.61
2022-10-13T03:10:50.288Z,75.36
2022-10-13T03:13:19.605Z,75.63
2022-10-13T03:15:48.403Z,75.74
2022-10-13T03:18:16.492Z,75.48
2022-10-13T03:20:44.929Z,75.39
2022-10-13T03:23:13.118Z,75.49
2022-10-13T03:25:42.767Z,75.23
2022-10-13T03:28:10.894Z,75.17
2022-10-13T03:30:39.048Z,74.71
2022-10-13T03:33:07.250Z,74.85
2022-10-13T03:35:35.299Z,74.75
2022-10-13T03:38:03.380Z,74.63
2022-10-13T03:40:31.500Z,74.50
2022-10-13T03:43:00.951Z,74.24
2022-10-13T03:45:31.403Z,74.70
2022-10-13T03:47:59.722Z,75.06
2022-10-13T03:50:27.933Z,74.67
2022-10-13T03:52:56.159Z,74.65
2022-10-13T03:55:24.845Z,74.58
2022-10-13T03:57:53.059Z,74.12
2022-10-13T04:00:23.319Z,74.83
2022-10-13T04:02:51.739Z,74.59
2022-10-13T04:05:19.877Z,75.32
2022-10-13T04:07:47.953Z,75.32
2022-10-13T04:10:16.096Z,75.21
2022-10-13T04:12:44.411Z,75.53
2022-10-13T04:15:12.908Z,76.11
2022-10-13T04:17:42.381Z,76.08
2022-10-13T04:20:11.731Z,76.92
2022-10-13T04:22:39.868Z,76.51
2022-10-13T04:25:09.166Z,76.62
2022-10-13T04:27:38.545Z,76.59
2022-10-13T04:30:08.072Z,76.90
2022-10-13T04:32:36.200Z,77.08
2022-10-13T04:35:06.665Z,77.05
2022-10-13T04:37:34.743Z,76.89
2022-10-13T04:40:02.886Z,76.92
2022-10-13T04:42:31.022Z,76.86
2022-10-13T04:44:59.106Z,77.13
2022-10-13T04:47:27.249Z,76.80
2022-10-13T04:49:55.370Z,77.04
2022-10-13T04:52:24.870Z,76.75
2022-10-13T04:54:52.941Z,76.12
2022-10-13T04:57:21.426Z,75.79
2022-10-13T04:59:50.039Z,75.49
2022-10-13T05:02:18.823Z,74.76
2022-10-13T05:04:47.339Z,75.12
2022-10-13T05:07:18.337Z,74.50
2022-10-13T05:09:48.277Z,74.51
2022-10-13T05:12:16.820Z,74.42
2022-10-13T05:14:45.438Z,73.70
2022-10-13T05:17:13.528Z,73.42
2022-10-13T05:19:41.717Z,72.88
2022-10-13T05:22:10.194Z,71.79
2022-10-13T05:24:38.641Z,70.57
2022-10-13T05:27:11.204Z,70.06
2022-10-13T05:29:39.956Z,69.76
2022-10-13T05:32:09.296Z,69.86
2022-10-13T05:34:37.362Z,69.71
2022-10-13T05:37:05.737Z,70.07
2022-10-13T05:39:33.993Z,70.47
2022-10-13T05:42:02.132Z,69.99
2022-10-13T05:44:31.751Z,68.80
2022-10-13T05:47:03.662Z,68.46
2022-10-13T05:49:36.493Z,66.91
2022-10-13T05:52:10.366Z,65.54
2022-10-13T05:54:41.853Z,64.78
2022-10-13T05:57:17.140Z,65.76
2022-10-13T05:59:53.099Z,67.23
2022-10-13T06:02:24.213Z,67.09
2022-10-13T06:04:55.779Z,66.20
2022-10-13T06:07:24.362Z,64.77
2022-10-13T06:09:53.027Z,63.24
2022-10-13T06:12:21.411Z,63.73
2022-10-13T06:14:51.180Z,63.94
2022-10-13T06:17:19.400Z,64.13
2022-10-13T06:19:47.511Z,63.91
2022-10-13T06:22:15.957Z,65.23
2022-10-13T06:24:44.075Z,65.46
2022-10-13T06:27:12.771Z,65.91
2022-10-13T06:29:41.178Z,64.99
2022-10-13T06:32:10.766Z,64.94
2022-10-13T06:34:39.205Z,65.61
2022-10-13T06:37:07.434Z,66.73
2022-10-13T06:39:35.599Z,65.59
2022-10-13T06:42:03.774Z,66.29
2022-10-13T06:44:32.909Z,64.64
2022-10-13T06:47:01.146Z,64.75
2022-10-13T06:49:30.705Z,65.70
2022-10-13T06:51:58.828Z,66.38
2022-10-13T06:54:26.913Z,64.57
2022-10-13T06:56:55.062Z,66.59
2022-10-13T06:59:23.410Z,65.17
2022-10-13T07:01:51.947Z,64.47
2022-10-13T07:04:20.111Z,64.57
2022-10-13T07:06:50.416Z,64.92
2022-10-13T07:09:20.139Z,63.86
2022-10-13T07:11:49.620Z,63.37
2022-10-13T07:14:17.848Z,63.61
2022-10-13T07:16:45.949Z,64.06
2022-10-13T07:19:14.147Z,63.47
2022-10-13T07:21:42.445Z,61.37
2022-10-13T07:24:12.880Z,59.22
2022-10-13T07:26:40.975Z,61.21
2022-10-13T07:29:09.825Z,58.27
2022-10-13T07:31:37.911Z,61.29
2022-10-13T07:34:06.808Z,59.16
2022-10-13T07:36:35.599Z,59.58
2022-10-13T07:39:04.152Z,58.45
2022-10-13T07:41:34.619Z,57.79
2022-10-13T07:44:02.765Z,57.07
2022-10-13T07:46:30.907Z,54.60
2022-10-13T07:49:00.390Z,53.50
2022-10-13T07:51:28.446Z,53.03
2022-10-13T07:53:56.575Z,56.00
2022-10-13T07:56:24.915Z,53.57
2022-10-13T07:58:54.583Z,51.85
2022-10-13T08:01:22.712Z,53.70
2022-10-13T08:03:50.946Z,53.09
2022-10-13T08:06:19.078Z,49.52
2022-10-13T08:08:47.390Z,52.65
2022-10-13T08:11:17.412Z,52.29
2022-10-13T08:13:49.116Z,53.58
2022-10-13T08:16:19.163Z,51.76
2022-10-13T08:18:47.879Z,52.20
2022-10-13T08:21:56.766Z,52.39
2022-10-13T08:24:06.940Z,50.90
2022-10-13T08:26:35.270Z,51.47
2022-10-13T08:29:20.832Z,52.25
2022-10-13T08:31:52.024Z,51.37
2022-10-13T08:34:20.484Z,50.83
2022-10-13T08:36:48.961Z,52.20
2022-10-13T08:39:17.140Z,52.53
2022-10-13T08:41:45.932Z,50.71
2022-10-13T08:47:19.759Z,50.35
2022-10-13T08:49:47.895Z,49.62
2022-10-13T08:52:20.972Z,50.33
2022-10-13T08:54:49.605Z,49.97
2022-10-13T08:57:18.793Z,50.58
2022-10-13T08:59:47.834Z,52.64
2022-10-13T09:02:25.143Z,51.60
2022-10-13T09:04:54.754Z,50.06
2022-10-13T09:07:27.821Z,52.45
2022-10-13T09:09:56.751Z,50.65
2022-10-13T09:12:26.080Z,50.27
2022-10-13T09:15:05.182Z,51.71
2022-10-13T09:17:35.759Z,49.52
2022-10-13T09:20:08.479Z,50.44
2022-10-13T09:22:37.782Z,49.31
2022-10-13T09:25:20.010Z,49.95
2022-10-13T09:27:51.247Z,49.17
2022-10-13T09:30:35.082Z,48.41
2022-10-13T09:33:24.224Z,49.96
2022-10-13T09:36:11.896Z,49.99
2022-10-13T09:38:41.704Z,50.60
2022-10-13T09:41:17.984Z,51.78
2022-10-13T09:44:01.389Z,51.63
2022-10-13T09:46:32.877Z,51.40
2022-10-13T09:49:06.249Z,51.22
2022-10-13T09:51:38.853Z,52.25
2022-10-13T09:54:08.379Z,52.03
2022-10-13T09:56:42.896Z,52.97
2022-10-13T09:59:22.982Z,53.98
2022-10-13T10:01:54.321Z,53.39
2022-10-13T10:04:27.807Z,52.83
2022-10-13T10:06:56.369Z,52.63
2022-10-13T10:09:35.564Z,53.08
2022-10-13T10:12:05.369Z,53.59
2022-10-13T10:14:35.474Z,54.14
2022-10-13T10:17:14.083Z,54.24
2022-10-13T10:19:59.866Z,53.21
2022-10-13T10:22:38.820Z,54.53
2022-10-13T10:25:23.611Z,53.47
2022-10-13T10:28:04.459Z,54.13
2022-10-13T10:30:35.279Z,54.02
2022-10-13T10:33:08.777Z,54.20
2022-10-13T10:35:46.557Z,54.24
2022-10-13T10:38:30.463Z,53.75
2022-10-13T10:41:06.317Z,54.06
2022-10-13T10:43:50.819Z,53.56
2022-10-13T10:46:23.998Z,52.04
2022-10-13T10:48:56.157Z,53.15
2022-10-13T10:51:32.205Z,53.64
2022-10-13T10:54:10.920Z,53.91
2022-10-13T10:56:41.878Z,53.52
2022-10-13T10:59:23.890Z,52.67
2022-10-13T11:02:03.501Z,52.51
2022-10-13T11:04:41.450Z,52.83
2022-10-13T11:07:16.002Z,52.45
2022-10-13T11:10:05.144Z,51.98
2022-10-13T11:13:22.427Z,53.03
2022-10-13T11:15:50.983Z,52.26
2022-10-13T11:19:05.922Z,53.29
2022-10-13T11:22:23.850Z,52.00
2022-10-13T11:25:12.850Z,50.95
2022-10-13T11:27:43.062Z,50.23
2022-10-13T11:30:47.549Z,51.68
2022-10-13T11:33:52.764Z,51.56
2022-10-13T11:36:56.806Z,52.39
2022-10-13T11:40:06.627Z,51.74
2022-10-13T11:43:05.269Z,50.95
2022-10-13T11:46:24.115Z,50.86
2022-10-13T11:49:40.210Z,53.07
2022-10-13T11:52:23.787Z,52.58
2022-10-13T11:54:56.601Z,51.11
2022-10-13T11:57:29.326Z,51.76
2022-10-13T11:59:58.230Z,51.40
2022-10-13T12:02:28.448Z,51.67
2022-10-13T12:05:06.976Z,54.97
2022-10-13T12:07:38.160Z,55.75
2022-10-13T12:10:16.223Z,54.76
2022-10-13T12:12:50.912Z,55.42
2022-10-13T12:15:32.488Z,54.57
2022-10-13T12:18:00.926Z,54.25
2022-10-13T12:20:31.171Z,53.60
2022-10-13T12:22:59.730Z,54.92
2022-10-13T12:25:31.166Z,54.96
2022-10-13T12:28:01.932Z,53.69
2022-10-13T12:30:31.823Z,54.90
2022-10-13T12:33:01.424Z,55.75
2022-10-13T12:35:31.971Z,56.70
2022-10-13T12:38:03.770Z,57.28
2022-10-13T12:40:32.224Z,55.55
2022-10-13T12:43:02.540Z,55.98
2022-10-13T12:45:34.168Z,55.65
2022-10-13T12:48:02.461Z,55.17
2022-10-13T12:50:37.350Z,54.76
2022-10-13T12:53:13.486Z,55.16
2022-10-13T12:55:50.760Z,54.77
2022-10-13T12:58:29.768Z,54.55
2022-10-13T13:01:04.319Z,53.48
2022-10-13T13:03:32.582Z,53.17
2022-10-13T13:06:22.621Z,52.46
2022-10-13T13:09:29.233Z,54.06
2022-10-13T13:12:22.735Z,55.00
2022-10-13T13:14:55.293Z,55.27
2022-10-13T13:20:27.551Z,56.01
2022-10-13T13:22:56.178Z,55.13
2022-10-13T13:25:25.161Z,55.00
2022-10-13T13:27:54.110Z,55.27
2022-10-13T13:30:25.220Z,54.21
2022-10-13T13:32:53.349Z,54.63
2022-10-13T13:35:21.483Z,55.59
2022-10-13T13:37:51.469Z,55.68
2022-10-13T13:40:21.748Z,56.13
2022-10-13T13:42:50.185Z,56.01
2022-10-13T13:45:20.603Z,55.50
2022-10-13T13:47:50.513Z,55.50
2022-10-13T13:50:22.986Z,55.76
2022-10-13T13:52:51.171Z,55.87
2022-10-13T13:55:19.626Z,57.07
2022-10-13T13:57:47.679Z,57.28
2022-10-13T14:00:17.207Z,57.44
2022-10-13T14:02:46.340Z,57.36
2022-10-13T14:05:19.256Z,57.36
2022-10-13T14:07:47.455Z,58.31
2022-10-13T14:10:15.701Z,57.73
2022-10-13T14:12:44.506Z,58.20
2022-10-13T14:15:12.758Z,58.77
2022-10-13T14:17:41.058Z,58.56
2022-10-13T14:20:11.451Z,58.70
2022-10-13T14:22:41.130Z,59.08
2022-10-13T14:25:10.422Z,59.83
2022-10-13T14:27:38.815Z,59.97
2022-10-13T14:30:08.565Z,59.48
2022-10-13T14:32:38.797Z,59.57
2022-10-13T14:35:07.838Z,60.78
2022-10-13T14:37:36.265Z,61.45
2022-10-13T14:40:06.823Z,61.52
2022-10-13T14:42:35.443Z,61.93
2022-10-13T14:45:06.673Z,60.78
2022-10-13T14:47:35.108Z,61.14
2022-10-13T14:50:03.161Z,61.69
2022-10-13T14:52:31.237Z,62.11
2022-10-13T14:54:59.297Z,62.45
2022-10-13T14:57:29.009Z,62.76
2022-10-13T15:00:01.704Z,62.90
2022-10-13T15:02:30.640Z,63.87
2022-10-13T15:04:59.120Z,63.24
2022-10-13T15:07:27.593Z,63.48
2022-10-13T15:10:10.981Z,64.14
2022-10-13T15:12:40.438Z,65.33
2022-10-13T15:15:09.352Z,65.74
2022-10-13T15:17:38.107Z,65.95
2022-10-13T15:20:07.527Z,66.40
2022-10-13T15:22:35.888Z,66.07
2022-10-13T15:25:07.855Z,66.47
2022-10-13T15:27:40.845Z,66.56
2022-10-13T15:30:12.875Z,67.06
2022-10-13T15:32:41.081Z,67.23
2022-10-13T15:35:09.863Z,67.66
2022-10-13T15:37:38.107Z,67.66
2022-10-13T15:40:08.016Z,67.95
2022-10-13T15:42:36.404Z,67.85
2022-10-13T15:45:09.843Z,68.18
2022-10-13T15:47:40.350Z,68.61
2022-10-13T15:50:12.076Z,68.70
2022-10-13T15:52:40.989Z,68.67
2022-10-13T15:55:10.389Z,67.62
2022-10-13T15:57:38.590Z,67.36
2022-10-13T16:00:09.229Z,67.83
2022-10-13T16:02:37.482Z,67.79
2022-10-13T16:05:09.034Z,67.66
2022-10-13T16:07:37.244Z,66.63
2022-10-13T16:10:08.100Z,66.66
2022-10-13T16:12:36.288Z,66.98
2022-10-13T16:15:04.393Z,67.41
2022-10-13T16:17:32.811Z,67.59
2022-10-13T16:20:01.131Z,67.39
2022-10-13T16:22:31.034Z,67.87
2022-10-13T16:24:59.202Z,67.47
2022-10-13T16:27:31.114Z,67.40
2022-10-13T16:29:59.244Z,67.39
2022-10-13T16:32:27.464Z,67.88
2022-10-13T16:34:55.483Z,67.76
2022-10-13T16:37:24.111Z,67.80
2022-10-13T16:39:53.787Z,67.96
2022-10-13T16:42:21.879Z,68.25
2022-10-13T16:44:50.071Z,68.57
2022-10-13T16:47:18.846Z,68.64
2022-10-13T16:49:47.481Z,69.01
2022-10-13T16:52:15.612Z,69.33
2022-10-13T16:54:43.838Z,69.20
2022-10-13T16:57:13.324Z,69.38
2022-10-13T16:59:41.804Z,69.11
2022-10-13T17:02:15.547Z,69.58
2022-10-13T17:04:43.869Z,70.01
2022-10-13T17:07:12.067Z,70.13
2022-10-13T17:09:40.459Z,70.24
2022-10-13T17:12:08.985Z,70.83
2022-10-13T17:14:38.544Z,71.30
2022-10-13T17:17:06.714Z,71.50
2022-10-13T17:19:35.189Z,71.35
2022-10-13T17:22:03.317Z,72.24
2022-10-13T17:24:31.395Z,71.97
2022-10-13T17:26:59.507Z,71.84
2022-10-13T17:29:27.790Z,72.30
2022-10-13T17:31:57.369Z,72.64
2022-10-13T17:34:25.419Z,72.59
2022-10-13T17:36:53.711Z,72.92
2022-10-13T17:39:21.867Z,73.05
2022-10-13T17:41:50.121Z,73.31
2022-10-13T17:44:20.774Z,73.16
2022-10-13T17:46:49.745Z,72.95
2022-10-13T17:49:19.616Z,73.35
2022-10-13T17:51:51.024Z,73.31
2022-10-13T17:54:19.971Z,73.67
2022-10-13T17:56:48.970Z,74.18
2022-10-13T17:59:18.311Z,74.03
2022-10-13T18:01:46.777Z,74.37
2022-10-13T18:04:16.846Z,74.67
2022-10-13T18:06:47.246Z,74.65
2022-10-13T18:09:18.121Z,74.88
2022-10-13T18:11:50.715Z,75.24
2022-10-13T18:14:19.784Z,75.86
2022-10-13T18:16:48.938Z,76.04
2022-10-13T18:19:17.116Z,75.98
2022-10-13T18:21:46.731Z,76.66
2022-10-13T18:24:15.097Z,77.22
2022-10-13T18:26:43.187Z,78.16
2022-10-13T18:29:13.213Z,78.40
2022-10-13T18:31:42.723Z,78.88
2022-10-13T18:34:14.240Z,79.00
2022-10-13T18:36:44.955Z,79.73
2022-10-13T18:39:16.756Z,80.08
2022-10-13T18:41:45.174Z,80.44
2022-10-13T18:44:13.375Z,80.79
2022-10-13T18:46:41.963Z,80.89
2022-10-13T18:49:13.554Z,80.99
2022-10-13T18:51:42.101Z,80.93
2022-10-13T18:54:10.479Z,81.59
2022-10-13T18:56:40.515Z,81.26
2022-10-13T18:59:10.014Z,81.48
2022-10-13T19:01:40.867Z,82.00
2022-10-13T19:04:09.953Z,81.97
2022-10-13T19:06:38.993Z,82.33
2022-10-13T19:09:08.582Z,82.33
2022-10-13T19:11:37.669Z,82.17
2022-10-13T19:14:11.081Z,82.45
2022-10-13T19:16:40.978Z,82.36
2022-10-13T19:19:09.610Z,82.71
2022-10-13T19:21:38.388Z,82.75
2022-10-13T19:24:07.322Z,83.23
2022-10-13T19:26:37.055Z,82.92
2022-10-13T19:29:09.200Z,83.14
2022-10-13T19:31:38.563Z,82.85
2022-10-13T19:34:06.703Z,83.52
2022-10-13T19:36:37.757Z,83.84
2022-10-13T19:39:10.851Z,83.62
2022-10-13T19:41:42.278Z,83.93
2022-10-13T19:44:12.045Z,83.81
2022-10-13T19:46:40.779Z,83.48
2022-10-13T19:49:08.984Z,83.51
2022-10-13T19:51:38.038Z,83.71
2022-10-13T19:54:06.493Z,84.05
2022-10-13T19:56:34.643Z,84.18
2022-10-13T19:59:04.415Z,84.10
2022-10-13T20:01:39.913Z,84.23
2022-10-13T20:04:08.615Z,84.23
2022-10-13T20:06:37.286Z,84.69
2022-10-13T20:09:05.534Z,84.67
2022-10-13T20:11:33.997Z,84.91
2022-10-13T20:14:02.242Z,85.15
2022-10-13T20:16:30.451Z,84.84
2022-10-13T20:19:01.610Z,84.68
2022-10-13T20:21:30.441Z,84.80
2022-10-13T20:23:59.007Z,85.10
2022-10-13T20:26:27.382Z,85.47
2022-10-13T20:28:55.829Z,85.09
2022-10-13T20:31:24.386Z,85.15
2022-10-13T20:33:56.022Z,85.51
2022-10-13T20:36:26.932Z,85.36
2022-10-13T20:38:55.506Z,85.82
2022-10-13T20:41:25.674Z,85.30
2022-10-13T20:43:56.014Z,84.51
2022-10-13T20:46:24.839Z,84.79
2022-10-13T20:49:11.399Z,85.26
2022-10-13T20:51:42.118Z,85.43
2022-10-13T20:54:10.666Z,85.38
2022-10-13T20:56:38.954Z,85.57
2022-10-13T20:59:09.523Z,86.19
2022-10-13T21:01:38.392Z,86.32
2022-10-13T21:04:06.669Z,86.27
2022-10-13T21:06:36.116Z,86.43
2022-10-13T21:09:06.845Z,86.52
2022-10-13T21:11:35.923Z,86.48
2022-10-13T21:14:09.581Z,86.74
2022-10-13T21:16:38.707Z,87.42
2022-10-13T21:19:06.940Z,87.60
2022-10-13T21:21:36.358Z,87.50
2022-10-13T21:24:08.182Z,87.78
2022-10-13T21:26:36.613Z,87.32
2022-10-13T21:29:04.811Z,87.22
2022-10-13T21:31:32.922Z,87.48
2022-10-13T21:34:01.259Z,87.92
2022-10-13T21:36:30.919Z,88.14
2022-10-13T21:39:01.280Z,88.06
2022-10-13T21:41:31.682Z,87.79
2022-10-13T21:43:59.999Z,87.90
2022-10-13T21:46:29.776Z,88.44
2022-10-13T21:48:59.771Z,88.75
2022-10-13T21:51:30.435Z,89.14
2022-10-13T21:54:00.667Z,89.12
2022-10-13T21:56:31.117Z,89.66
2022-10-13T21:58:59.186Z,90.40
2022-10-13T22:01:27.679Z,90.31
2022-10-13T22:03:57.819Z,90.17
2022-10-13T22:06:26.782Z,90.43
2022-10-13T22:08:56.797Z,90.40
2022-10-13T22:11:26.579Z,90.79
2022-10-13T22:13:57.165Z,90.41
2022-10-13T22:16:27.483Z,90.61
2022-10-13T22:18:56.972Z,91.49
2022-10-13T22:21:27.380Z,91.33
2022-10-13T22:23:57.738Z,91.51
2022-10-13T22:26:25.818Z,91.14
2022-10-13T22:28:55.514Z,91.24
2022-10-13T22:31:23.582Z,91.38
2022-10-13T22:33:53.816Z,91.27
2022-10-13T22:36:23.994Z,91.50
2022-10-13T22:38:54.353Z,91.68
2022-10-13T22:41:22.799Z,91.47
2022-10-13T22:43:51.925Z,91.54
2022-10-13T22:46:25.067Z,91.77
2022-10-13T22:48:53.361Z,92.27
2022-10-13T22:51:23.916Z,92.29
2022-10-13T22:53:52.340Z,92.71
2022-10-13T22:56:22.190Z,92.46
2022-10-13T22:58:51.341Z,92.86
2022-10-13T23:01:21.717Z,92.58
2022-10-13T23:03:50.939Z,92.46
2022-10-13T23:06:21.089Z,92.12
2022-10-13T23:08:49.785Z,92.05
2022-10-13T23:11:18.281Z,91.06
2022-10-13T23:13:46.901Z,91.03
2022-10-13T23:16:17.229Z,90.82
2022-10-13T23:18:47.325Z,90.35
2022-10-13T23:21:17.556Z,90.46
2022-10-13T23:23:46.341Z,91.32
2022-10-13T23:26:16.899Z,92.73
2022-10-13T23:28:45.431Z,92.44
2022-10-13T23:31:15.283Z,92.51
2022-10-13T23:33:43.805Z,93.06
2022-10-13T23:36:16.357Z,93.04
2022-10-13T23:38:44.633Z,91.95
2022-10-13T23:41:14.599Z,91.72
2022-10-13T23:43:43.622Z,92.09
2022-10-13T23:46:12.319Z,91.95
2022-10-13T23:48:41.243Z,92.82
2022-10-13T23:51:10.956Z,93.01
2022-10-13T23:53:41.317Z,92.41
2022-10-13T23:56:12.146Z,92.31
2022-10-13T23:58:42.193Z,91.97
